Time;durP1;ratioP1;P1;durP2;ratioP2;P2;SDS_P1;SDS_P2;PMS_P1;PMS_P2;Temp;Humidity;BMP_temperature;BMP_pressure;BME280_temperature;BME280_humidity;BME280_pressure;Samples;Min_cycle;Max_cycle;Signal;HPM_P1;HPM_P2
2023/10/18 00:01:00;;;;;;;8.52;5.63;;;;;;;16.72;40.83;100620.34;5132752;27;20050;-64
2023/10/18 00:03:30;;;;;;;10.48;6.25;;;;;;;16.71;40.81;100615.06;5132854;27;20047;-65
2023/10/18 00:06:11;;;;;;;10.30;6.10;;;;;;;16.68;41.02;100609.88;5132367;27;20089;-65
2023/10/18 00:08:39;;;;;;;8.90;5.95;;;;;;;16.67;40.81;100610.88;5132158;27;20411;-66
2023/10/18 00:11:08;;;;;;;10.23;6.03;;;;;;;16.66;40.78;100612.72;5132649;27;20082;-64
2023/10/18 00:13:37;;;;;;;9.02;6.18;;;;;;;16.65;40.92;100604.75;5131458;28;20054;-65
2023/10/18 00:16:07;;;;;;;8.60;5.72;;;;;;;16.64;40.91;100593.13;5132569;27;20075;-65
2023/10/18 00:18:36;;;;;;;10.02;6.55;;;;;;;16.62;41.28;100600.47;5132626;27;20524;-65
2023/10/18 00:21:07;;;;;;;9.55;5.93;;;;;;;16.62;40.95;100602.31;5132405;27;20122;-65
2023/10/18 00:23:36;;;;;;;10.23;5.80;;;;;;;16.59;41.08;100611.47;5132191;27;20415;-65
2023/10/18 00:26:07;;;;;;;9.60;6.18;;;;;;;16.57;40.74;100619.69;5132487;27;20134;-65
2023/10/18 00:28:38;;;;;;;9.02;6.07;;;;;;;16.56;40.77;100620.66;5132322;27;20596;-65
2023/10/18 00:31:14;;;;;;;9.07;6.28;;;;;;;16.54;40.73;100603.78;5132468;27;20058;-65
2023/10/18 00:33:43;;;;;;;9.77;6.55;;;;;;;16.54;40.79;100608.31;5132168;27;20385;-66
2023/10/18 00:36:16;;;;;;;9.30;5.70;;;;;;;16.52;40.76;100604.88;5132368;27;20097;-64
2023/10/18 00:38:45;;;;;;;9.45;6.13;;;;;;;16.49;40.92;100599.72;5132260;27;20143;-65
2023/10/18 00:41:16;;;;;;;10.10;6.38;;;;;;;16.49;40.98;100602.41;5132332;27;20135;-65
2023/10/18 00:43:45;;;;;;;9.80;6.03;;;;;;;16.47;40.78;100607.94;5134113;27;20089;-65
2023/10/18 00:46:15;;;;;;;9.90;6.20;;;;;;;16.46;40.88;100606.22;5135802;27;20134;-65
2023/10/18 00:48:46;;;;;;;10.27;6.35;;;;;;;16.46;40.71;100602.66;5136077;27;20043;-65
2023/10/18 00:51:17;;;;;;;9.77;6.20;;;;;;;16.45;40.99;100607.19;5135707;27;20043;-64
2023/10/18 00:53:47;;;;;;;9.95;6.03;;;;;;;16.44;40.90;100605.47;5135569;27;20039;-65
2023/10/18 00:56:16;;;;;;;9.38;5.80;;;;;;;16.42;41.11;100602.06;5135972;27;20130;-65
2023/10/18 00:58:46;;;;;;;8.70;5.63;;;;;;;16.40;40.86;100601.31;5135442;27;20050;-65
2023/10/18 01:01:17;;;;;;;9.23;5.88;;;;;;;16.40;40.69;100590.53;5135795;27;20051;-65
2023/10/18 01:03:49;;;;;;;9.13;5.88;;;;;;;16.38;40.80;100581.72;5135442;27;20047;-65
2023/10/18 01:06:24;;;;;;;7.68;5.68;;;;;;;16.37;40.74;100573.78;5135499;27;20044;-64
2023/10/18 01:08:53;;;;;;;9.15;6.15;;;;;;;16.36;40.80;100572.91;5135324;27;20138;-66
2023/10/18 01:11:27;;;;;;;8.40;5.60;;;;;;;16.33;40.84;100562.41;5135266;27;20124;-65
2023/10/18 01:13:59;;;;;;;10.15;6.10;;;;;;;16.32;40.97;100560.69;5135474;27;20126;-65
2023/10/18 01:16:30;;;;;;;9.20;5.75;;;;;;;16.31;41.02;100559.84;5135404;27;20088;-65
2023/10/18 01:18:59;;;;;;;9.13;5.70;;;;;;;16.30;41.00;100562.63;5135254;27;20479;-65
2023/10/18 01:21:29;;;;;;;8.98;6.00;;;;;;;16.28;40.74;100556.50;5135041;27;20039;-65
2023/10/18 01:23:59;;;;;;;9.18;5.82;;;;;;;16.28;41.01;100564.59;5134946;27;20047;-65
2023/10/18 01:26:31;;;;;;;8.63;5.90;;;;;;;16.27;41.04;100562.88;5135243;27;20081;-66
2023/10/18 01:29:04;;;;;;;10.23;6.40;;;;;;;16.24;40.51;100557.75;5135170;27;20096;-65
2023/10/18 01:31:33;;;;;;;9.18;5.80;;;;;;;16.22;41.00;100557.88;5135073;27;20043;-65
2023/10/18 01:34:07;;;;;;;9.52;6.28;;;;;;;16.21;40.81;100557.97;5135082;27;20061;-65
2023/10/18 01:36:38;;;;;;;8.35;5.82;;;;;;;16.20;40.66;100561.63;5135051;27;20039;-65
2023/10/18 01:39:20;;;;;;;8.82;6.30;;;;;;;16.18;40.85;100559.06;5134975;27;20043;-65
2023/10/18 01:41:53;;;;;;;10.25;5.90;;;;;;;16.18;41.04;100568.97;5134735;27;20074;-65
2023/10/18 01:44:30;;;;;;;9.35;5.85;;;;;;;16.16;40.52;100569.13;5134819;27;20509;-65
2023/10/18 01:47:06;;;;;;;10.65;6.13;;;;;;;16.14;40.64;100568.38;5134665;27;20154;-65
2023/10/18 01:49:40;;;;;;;9.20;6.10;;;;;;;16.14;40.67;100562.13;5134765;27;20047;-65
2023/10/18 01:52:11;;;;;;;9.98;6.30;;;;;;;16.11;40.81;100562.34;5134725;27;20407;-65
2023/10/18 01:54:41;;;;;;;9.68;6.65;;;;;;;16.10;40.84;100564.19;5134223;27;20039;-66
2023/10/18 01:57:13;;;;;;;9.35;6.32;;;;;;;16.00;40.83;100547.91;5134345;27;20130;-65
2023/10/18 01:59:42;;;;;;;10.05;6.18;;;;;;;16.08;40.73;100559.91;5134592;27;20051;-65
2023/10/18 02:02:11;;;;;;;9.40;5.88;;;;;;;16.06;40.57;100554.66;5134511;27;20054;-65
2023/10/18 02:04:41;;;;;;;8.52;5.70;;;;;;;16.05;40.81;100552.09;5134387;27;20070;-65
2023/10/18 02:07:21;;;;;;;9.27;5.65;;;;;;;16.02;40.94;100548.69;5134344;27;20047;-65
2023/10/18 02:09:52;;;;;;;9.75;6.15;;;;;;;16.02;40.79;100554.06;5134087;27;20047;-66
2023/10/18 02:12:23;;;;;;;9.18;5.97;;;;;;;16.01;40.80;100554.16;5134303;27;20054;-65
2023/10/18 02:14:52;;;;;;;9.25;6.15;;;;;;;15.99;40.64;100554.28;5134329;27;20050;-65
2023/10/18 02:17:21;;;;;;;9.20;5.95;;;;;;;15.97;40.64;100553.53;5134425;27;20066;-65
2023/10/18 02:19:53;;;;;;;9.32;5.25;;;;;;;15.97;40.79;100560.75;5134041;27;20043;-66
2023/10/18 02:22:22;;;;;;;8.18;5.35;;;;;;;15.95;40.84;100563.56;5133793;27;20146;-65
2023/10/18 02:24:53;;;;;;;8.43;5.43;;;;;;;15.94;40.99;100561.88;5134140;27;20055;-65
2023/10/18 02:27:24;;;;;;;8.80;5.75;;;;;;;15.93;40.96;100565.53;5133958;27;20055;-65
2023/10/18 02:29:52;;;;;;;8.55;6.10;;;;;;;15.91;40.99;100567.47;5133872;27;20051;-65
2023/10/18 02:32:32;;;;;;;10.32;6.45;;;;;;;15.90;40.85;100557.69;5133795;27;20127;-65
2023/10/18 02:35:04;;;;;;;8.38;5.55;;;;;;;15.89;40.99;100565.88;5133807;27;20054;-65
2023/10/18 02:37:32;;;;;;;9.50;5.80;;;;;;;15.87;40.77;100549.84;5133805;27;20126;-65
2023/10/18 02:40:08;;;;;;;8.27;5.13;;;;;;;15.86;40.87;100555.34;5133931;27;20043;-65
2023/10/18 02:42:38;;;;;;;9.55;6.32;;;;;;;15.85;40.51;100561.72;5133489;27;20092;-65
2023/10/18 02:45:12;;;;;;;8.93;5.78;;;;;;;15.82;40.52;100554.72;5133450;27;20084;-64
2023/10/18 02:47:44;;;;;;;8.20;5.50;;;;;;;15.82;40.89;100560.09;5133343;27;20050;-64
2023/10/18 02:50:14;;;;;;;9.30;5.95;;;;;;;15.82;40.95;100578.06;5133451;27;20047;-65
2023/10/18 02:52:45;;;;;;;8.52;5.55;;;;;;;15.80;40.97;100572.81;5133405;27;20072;-65
2023/10/18 02:55:18;;;;;;;8.63;5.53;;;;;;;15.79;40.88;100573.78;5133418;27;20082;-65
2023/10/18 02:57:48;;;;;;;10.00;5.85;;;;;;;15.78;40.76;100572.09;5133245;27;20046;-65
2023/10/18 03:00:20;;;;;;;7.75;5.50;;;;;;;15.77;40.93;100564.13;5133365;27;20043;-65
2023/10/18 03:02:49;;;;;;;7.65;5.15;;;;;;;15.76;40.84;100562.44;5133357;27;20049;-65
2023/10/18 03:05:20;;;;;;;9.52;5.97;;;;;;;15.74;40.98;100566.09;5132727;27;20051;-65
2023/10/18 03:07:51;;;;;;;8.02;5.90;;;;;;;15.73;40.97;100564.38;5133125;27;20420;-65
2023/10/18 03:10:27;;;;;;;8.32;5.78;;;;;;;15.72;41.11;100562.63;5133102;27;20415;-65
2023/10/18 03:12:58;;;;;;;9.10;5.80;;;;;;;15.71;40.83;100562.75;5133168;27;20055;-65
2023/10/18 03:15:28;;;;;;;8.63;5.50;;;;;;;15.70;40.92;100552.97;5131783;27;20040;-65
2023/10/18 03:17:56;;;;;;;7.85;5.32;;;;;;;15.68;40.90;100549.56;5133102;27;20054;-65
2023/10/18 03:20:26;;;;;;;8.73;5.28;;;;;;;15.68;40.72;100554.94;5133093;27;20050;-65
2023/10/18 03:22:56;;;;;;;8.48;5.38;;;;;;;15.66;41.17;100547.00;5132691;27;20047;-65
2023/10/18 03:25:27;;;;;;;7.93;5.20;;;;;;;15.66;40.99;100548.81;5133035;27;20050;-66
2023/10/18 03:28:02;;;;;;;7.97;5.55;;;;;;;15.64;40.72;100540.88;5133076;27;20051;-64
2023/10/18 03:30:44;;;;;;;7.78;4.85;;;;;;;15.64;40.88;100542.72;5132928;27;20138;-64
2023/10/18 03:33:14;;;;;;;8.93;5.50;;;;;;;15.61;40.74;100540.25;5133040;27;20043;-65
2023/10/18 03:35:43;;;;;;;7.88;5.05;;;;;;;15.60;40.70;100541.19;5132678;27;20074;-65
2023/10/18 03:38:17;;;;;;;8.45;4.88;;;;;;;15.58;40.95;100535.94;5132755;27;20050;-65
2023/10/18 03:40:49;;;;;;;8.18;5.30;;;;;;;15.56;40.81;100534.34;5132897;27;20167;-65
2023/10/18 03:43:26;;;;;;;8.43;4.90;;;;;;;15.57;40.87;100536.06;5132721;27;20047;-65
2023/10/18 03:46:18;;;;;;;7.65;5.07;;;;;;;15.56;40.81;100539.72;5132472;27;20043;-65
2023/10/18 03:48:54;;;;;;;7.40;4.65;;;;;;;15.54;40.82;100539.84;5132697;27;20055;-65
2023/10/18 03:51:23;;;;;;;7.32;5.10;;;;;;;15.53;40.85;100539.94;5132808;27;20061;-65
2023/10/18 03:53:55;;;;;;;8.73;5.25;;;;;;;15.53;41.02;100537.25;5132683;27;20043;-65
2023/10/18 03:56:25;;;;;;;6.85;4.88;;;;;;;15.51;40.87;100536.50;5132610;27;20101;-65
2023/10/18 03:59:00;;;;;;;7.05;4.60;;;;;;;15.50;40.84;100534.81;5132752;27;20039;-65
2023/10/18 04:01:39;;;;;;;8.25;5.20;;;;;;;15.50;40.85;100534.81;5132443;27;20504;-65
2023/10/18 04:04:09;;;;;;;7.82;4.88;;;;;;;15.48;40.78;100544.81;5132544;27;20431;-66
2023/10/18 04:06:37;;;;;;;7.90;4.97;;;;;;;15.46;40.80;100543.09;5132358;27;20047;-66
2023/10/18 04:09:15;;;;;;;8.25;5.00;;;;;;;15.45;40.70;100541.41;5132319;27;20070;-66
2023/10/18 04:11:43;;;;;;;7.00;4.72;;;;;;;15.43;40.88;100546.00;5132500;27;20117;-66
2023/10/18 04:14:16;;;;;;;8.57;4.88;;;;;;;15.44;40.74;100546.88;5132421;27;20043;-64
2023/10/18 04:16:47;;;;;;;;;;;;;;;15.42;40.84;100551.50;5133272;27;20400;-63
2023/10/18 04:19:19;;;;;;;6.80;4.68;;;;;;;15.41;40.82;100552.47;5136248;27;19972;-64
2023/10/18 04:21:53;;;;;;;7.38;4.60;;;;;;;15.39;40.93;100557.97;5136528;27;20051;-65
2023/10/18 04:24:21;;;;;;;9.45;5.00;;;;;;;15.38;40.57;100550.88;5136237;27;20467;-63
2023/10/18 04:26:50;;;;;;;7.93;4.68;;;;;;;15.36;40.91;100550.16;5136257;27;20043;-64
2023/10/18 04:29:26;;;;;;;7.68;4.70;;;;;;;15.37;40.92;100559.94;5136121;27;20055;-63
2023/10/18 04:31:56;;;;;;;7.45;4.50;;;;;;;15.35;40.92;100551.13;5136111;27;20047;-65
2023/10/18 04:34:24;;;;;;;7.63;4.75;;;;;;;15.35;40.67;100558.34;5136299;27;20043;-65
2023/10/18 04:36:55;;;;;;;8.32;4.60;;;;;;;15.33;40.88;100549.50;5136325;27;20139;-65
2023/10/18 04:39:27;;;;;;;6.75;4.45;;;;;;;15.32;40.71;100553.16;5136123;27;20043;-65
2023/10/18 04:41:56;;;;;;;8.18;5.03;;;;;;;15.31;40.73;100552.31;5135767;27;20133;-64
2023/10/18 04:44:26;;;;;;;6.68;4.35;;;;;;;15.29;40.79;100554.25;5135716;27;20039;-65
2023/10/18 04:46:59;;;;;;;8.82;4.95;;;;;;;15.28;40.52;100557.94;5136034;27;20141;-65
2023/10/18 04:49:38;;;;;;;6.60;4.32;;;;;;;15.27;40.69;100558.06;5135839;27;20058;-65
2023/10/18 04:52:08;;;;;;;8.18;4.80;;;;;;;15.26;40.75;100554.50;5135719;27;20047;-65
2023/10/18 04:54:37;;;;;;;7.18;4.50;;;;;;;15.24;40.81;100548.38;5135655;27;20079;-66
2023/10/18 04:57:10;;;;;;;7.03;4.70;;;;;;;15.24;40.70;100550.19;5135581;27;20096;-66
2023/10/18 04:59:46;;;;;;;8.73;5.00;;;;;;;15.22;40.74;100553.00;5135707;27;20052;-65
2023/10/18 05:02:17;;;;;;;7.80;4.97;;;;;;;15.22;40.93;100558.38;5135635;27;20457;-65
2023/10/18 05:04:46;;;;;;;7.90;4.80;;;;;;;15.20;41.05;100552.25;5135357;27;20075;-66
2023/10/18 05:07:14;;;;;;;8.52;4.85;;;;;;;15.20;40.58;100560.31;5135402;27;20043;-66
2023/10/18 05:09:44;;;;;;;8.10;5.03;;;;;;;15.19;40.67;100558.63;5135258;27;20451;-65
2023/10/18 05:12:27;;;;;;;7.28;4.70;;;;;;;15.17;40.52;100561.41;5135407;27;20047;-65
2023/10/18 05:15:16;;;;;;;7.72;4.70;;;;;;;15.17;40.71;100560.56;5135033;27;20082;-66
2023/10/18 05:17:45;;;;;;;8.32;4.68;;;;;;;15.16;40.74;100558.84;5135361;27;20046;-64
2023/10/18 05:20:24;;;;;;;6.18;4.60;;;;;;;15.15;40.86;100562.47;5134726;27;20091;-66
2023/10/18 05:22:59;;;;;;;7.65;5.15;;;;;;;15.14;40.83;100567.00;5134757;27;20059;-66
2023/10/18 05:25:34;;;;;;;8.15;5.18;;;;;;;15.12;40.64;100568.09;5135132;27;20047;-66
2023/10/18 05:28:09;;;;;;;8.25;4.97;;;;;;;15.11;40.76;100561.88;5134306;27;20437;-64
2023/10/18 05:36:29;;;;;;;6.65;4.35;;;;;;;15.08;40.63;100578.22;5134049;27;20494;-63
2023/10/18 05:39:27;;;;;;;6.60;4.65;;;;;;;15.08;40.71;100578.22;5133161;27;20188;-64
2023/10/18 05:42:03;;;;;;;8.65;5.03;;;;;;;15.07;40.72;100579.19;5133950;27;20051;-63
2023/10/18 05:44:32;;;;;;;7.50;4.97;;;;;;;15.06;40.65;100573.94;5133860;27;20043;-63
2023/10/18 05:47:06;;;;;;;6.97;4.55;;;;;;;15.05;40.49;100574.88;5133917;27;20055;-64
2023/10/18 05:49:41;;;;;;;7.55;4.78;;;;;;;15.06;40.42;100574.78;5134065;27;20063;-64
2023/10/18 05:52:36;;;;;;;7.25;4.60;;;;;;;15.04;40.46;100570.47;5134349;27;20077;-64
2023/10/18 05:55:09;;;;;;;9.07;4.82;;;;;;;15.04;40.62;100576.72;5134119;27;20047;-63
2023/10/18 05:57:42;;;;;;;8.07;5.10;;;;;;;15.04;40.59;100575.84;5133803;27;20046;-64
2023/10/18 06:00:17;;;;;;;7.93;4.97;;;;;;;15.03;40.38;100571.47;5134054;27;20503;-65
2023/10/18 06:02:48;;;;;;;6.53;4.43;;;;;;;15.03;40.39;100574.16;5134207;27;20122;-65
2023/10/18 06:05:16;;;;;;;7.38;4.70;;;;;;;15.03;40.72;100574.16;5134317;27;20491;-65
2023/10/18 06:07:45;;;;;;;8.35;4.35;;;;;;;15.03;40.62;100579.53;5134148;27;20103;-65
2023/10/18 06:10:16;;;;;;;7.05;4.22;;;;;;;15.02;40.71;100592.09;5134155;27;20133;-65
2023/10/18 06:12:48;;;;;;;7.65;4.55;;;;;;;15.02;40.69;100588.53;5134211;27;20047;-65
2023/10/18 06:15:30;;;;;;;8.02;4.72;;;;;;;15.02;40.65;100593.91;5134181;27;20043;-68
2023/10/18 06:18:01;;;;;;;7.88;4.28;;;;;;;15.01;40.50;100589.53;5134148;27;20043;-66
2023/10/18 06:20:30;;;;;;;8.20;4.65;;;;;;;15.02;40.67;100596.59;5133867;27;20380;-65
2023/10/18 06:23:08;;;;;;;7.57;4.53;;;;;;;15.02;40.78;100594.78;5133578;27;20050;-65
2023/10/18 06:25:44;;;;;;;7.55;4.30;;;;;;;15.02;40.64;100601.97;5134162;27;20436;-66
2023/10/18 06:28:20;;;;;;;7.20;4.25;;;;;;;15.02;40.63;100610.03;5134160;27;20043;-66
2023/10/18 06:30:51;;;;;;;6.68;4.35;;;;;;;15.03;40.62;100611.75;5133531;27;20414;-64
2023/10/18 06:33:21;;;;;;;7.30;4.50;;;;;;;15.03;40.66;100609.06;5133548;27;20092;-65
2023/10/18 06:35:54;;;;;;;8.63;4.90;;;;;;;15.01;40.61;100602.94;5133592;27;20494;-65
2023/10/18 06:38:25;;;;;;;7.93;4.70;;;;;;;15.02;40.72;100604.66;5133623;27;20071;-64
2023/10/18 06:41:00;;;;;;;6.90;4.25;;;;;;;15.01;40.53;100595.75;5132578;27;20039;-65
2023/10/18 06:43:31;;;;;;;7.07;4.40;;;;;;;15.03;40.70;100604.56;5133488;27;20047;-64
2023/10/18 06:46:00;;;;;;;6.72;4.05;;;;;;;15.03;40.74;100599.19;5133166;27;20049;-67
2023/10/18 06:48:31;;;;;;;6.38;4.22;;;;;;;15.04;40.66;100605.41;5133405;27;20111;-65
2023/10/18 06:50:59;;;;;;;7.93;4.22;;;;;;;15.04;40.64;100600.03;5133371;27;20417;-65
2023/10/18 06:53:29;;;;;;;7.20;4.47;;;;;;;15.05;40.65;100596.38;5133178;27;20440;-65
2023/10/18 06:55:58;;;;;;;7.45;4.22;;;;;;;15.05;40.62;100599.06;5133252;27;20399;-66
2023/10/18 06:58:43;;;;;;;7.20;3.97;;;;;;;15.06;40.70;100600.81;5133385;27;20099;-65
2023/10/18 07:01:19;;;;;;;7.22;3.95;;;;;;;15.06;40.55;100600.81;5133228;27;20051;-66
2023/10/18 07:03:50;;;;;;;6.57;4.13;;;;;;;15.05;40.74;100594.53;5133262;27;20507;-66
2023/10/18 07:06:25;;;;;;;7.88;4.70;;;;;;;15.06;40.69;100601.66;5133006;27;20047;-66
2023/10/18 07:08:53;;;;;;;7.53;4.50;;;;;;;15.07;40.76;100591.78;5132908;27;20047;-66
2023/10/18 07:11:22;;;;;;;9.18;4.50;;;;;;;15.08;40.71;100604.22;5132872;27;20154;-66
2023/10/18 07:14:12;;;;;;;7.75;4.40;;;;;;;15.08;40.76;100602.41;5133053;27;20079;-65
2023/10/18 07:16:42;;;;;;;6.82;4.25;;;;;;;15.08;40.68;100605.09;5132938;27;20051;-66
2023/10/18 07:19:29;;;;;;;6.93;4.18;;;;;;;15.08;40.71;100593.47;5132638;27;20049;-66
2023/10/18 07:21:59;;;;;;;6.80;4.18;;;;;;;15.10;40.86;100594.22;5132900;27;20043;-65
2023/10/18 07:24:34;;;;;;;8.20;4.55;;;;;;;15.09;40.79;100600.56;5132723;27;20399;-65
2023/10/18 07:27:05;;;;;;;7.38;4.13;;;;;;;15.10;40.78;100596.91;5132480;27;20084;-66
2023/10/18 07:29:36;;;;;;;7.00;4.38;;;;;;;15.09;40.78;100593.38;5132652;27;20043;-66
2023/10/18 07:32:12;;;;;;;7.35;4.30;;;;;;;15.11;40.71;100583.34;5132983;27;20130;-65
2023/10/18 07:34:43;;;;;;;6.47;4.30;;;;;;;15.12;40.69;100589.59;5132756;27;20039;-65
2023/10/18 07:37:24;;;;;;;7.47;4.13;;;;;;;15.11;40.74;100593.25;5132956;27;20081;-66
2023/10/18 07:39:57;;;;;;;7.70;4.50;;;;;;;15.13;40.71;100586.78;5132215;27;20096;-64
2023/10/18 07:42:27;;;;;;;6.45;4.22;;;;;;;15.12;40.79;100587.75;5132422;27;20134;-66
2023/10/18 07:45:03;;;;;;;7.15;4.47;;;;;;;15.13;40.83;100591.31;5132591;27;20601;-65
2023/10/18 07:47:37;;;;;;;7.65;4.30;;;;;;;15.13;40.87;100583.25;5132525;27;20142;-65
2023/10/18 07:50:34;;;;;;;6.45;3.63;;;;;;;15.14;40.80;100587.63;5132404;27;20047;-65
2023/10/18 07:53:01;;;;;;;6.22;4.13;;;;;;;15.15;40.71;100586.66;5135038;27;20510;-65
2023/10/18 07:55:36;;;;;;;7.43;4.20;;;;;;;15.15;40.74;100584.88;5137089;27;20051;-64
2023/10/18 07:58:17;;;;;;;6.60;4.25;;;;;;;15.16;40.90;100581.19;5136612;27;20496;-64
2023/10/18 08:01:08;;;;;;;7.10;4.25;;;;;;;15.16;40.85;100580.34;5136573;27;20043;-66
2023/10/18 08:03:38;;;;;;;6.07;4.13;;;;;;;15.17;40.94;100577.53;5136551;27;20043;-64
2023/10/18 08:06:15;;;;;;;7.97;4.43;;;;;;;15.17;40.88;100582.06;5136812;27;20043;-64
2023/10/18 08:08:46;;;;;;;6.10;4.20;;;;;;;15.17;40.90;100577.53;5137025;27;20075;-65
2023/10/18 08:11:18;;;;;;;8.05;4.32;;;;;;;15.20;40.96;100580.97;5136434;27;20068;-65
2023/10/18 08:13:47;;;;;;;6.63;4.35;;;;;;;15.21;41.03;100577.31;5136273;27;20055;-65
2023/10/18 08:16:20;;;;;;;5.82;3.70;;;;;;;15.21;41.07;100580.00;5136495;27;20130;-64
2023/10/18 08:18:53;;;;;;;6.25;3.80;;;;;;;15.22;41.09;100574.50;5136270;27;20376;-64
2023/10/18 08:21:36;;;;;;;6.40;4.18;;;;;;;15.22;41.02;100574.50;5136097;27;20108;-65
2023/10/18 08:24:20;;;;;;;6.80;4.82;;;;;;;15.24;41.04;100567.16;5135883;27;20061;-65
2023/10/18 08:26:48;;;;;;;6.85;4.32;;;;;;;15.25;41.09;100574.28;5136228;27;20049;-64
2023/10/18 08:29:17;;;;;;;6.20;4.03;;;;;;;15.25;41.00;100565.34;5137498;27;20050;-63
2023/10/18 08:31:55;;;;;;;6.63;4.25;;;;;;;15.26;40.99;100559.88;5136032;27;20054;-64
2023/10/18 08:34:24;;;;;;;5.95;4.05;;;;;;;15.28;41.00;100555.25;5136058;27;20039;-64
2023/10/18 08:37:01;;;;;;;6.50;4.07;;;;;;;15.29;40.99;100556.09;5136001;27;20054;-64
2023/10/18 08:39:30;;;;;;;7.63;4.07;;;;;;;15.30;40.97;100565.88;5136099;27;20054;-64
2023/10/18 08:42:08;;;;;;;6.95;3.90;;;;;;;15.31;41.15;100557.69;5135960;27;20122;-64
2023/10/18 08:44:38;;;;;;;7.00;3.90;;;;;;;15.33;41.17;100555.72;5135767;27;20039;-64
2023/10/18 08:47:13;;;;;;;5.93;4.20;;;;;;;15.35;41.15;100555.66;5135610;27;20175;-64
2023/10/18 08:49:51;;;;;;;6.72;4.07;;;;;;;15.35;41.17;100556.50;5135673;27;20096;-64
2023/10/18 08:52:23;;;;;;;8.57;4.10;;;;;;;15.37;41.11;100557.25;5135727;27;20427;-65
2023/10/18 08:54:53;;;;;;;6.55;3.92;;;;;;;15.39;41.28;100549.91;5135621;27;20043;-64
2023/10/18 08:57:34;;;;;;;5.90;3.95;;;;;;;15.39;41.26;100549.91;5135476;27;20039;-65
2023/10/18 09:01:02;;;;;;;6.53;3.95;;;;;;;15.43;41.27;100548.69;5135686;27;20435;-63
2023/10/18 09:03:08;;;;;;;6.47;3.50;;;;;;;15.43;41.26;100535.25;5134839;27;20133;-63
2023/10/18 09:05:37;;;;;;;6.18;3.67;;;;;;;15.46;41.44;100539.56;5134943;27;20133;-63
2023/10/18 09:08:08;;;;;;;5.05;3.38;;;;;;;15.48;41.09;100532.22;5135063;27;20078;-64
2023/10/18 09:10:47;;;;;;;6.13;3.83;;;;;;;15.51;41.53;100534.69;5135521;27;20047;-64
2023/10/18 09:13:33;;;;;;;6.20;4.03;;;;;;;15.55;41.23;100535.31;5135401;27;20047;-63
2023/10/18 09:16:11;;;;;;;9.65;3.90;;;;;;;15.59;41.26;100528.72;5135123;27;20098;-64
2023/10/18 09:18:40;;;;;;;6.50;3.58;;;;;;;15.62;41.37;100528.50;5135465;27;20054;-65
2023/10/18 09:21:18;;;;;;;6.15;3.50;;;;;;;15.66;41.37;100524.63;5135276;27;20043;-65
2023/10/18 09:23:59;;;;;;;6.88;3.72;;;;;;;15.69;41.27;100527.94;5134930;27;20137;-65
2023/10/18 09:26:35;;;;;;;6.25;3.80;;;;;;;15.73;41.29;100532.09;5135059;27;20132;-64
2023/10/18 09:29:04;;;;;;;6.82;3.90;;;;;;;15.78;41.24;100518.28;5135250;27;20043;-65
2023/10/18 09:31:32;;;;;;;6.82;3.80;;;;;;;15.84;41.13;100527.72;5134588;27;20065;-65
2023/10/18 09:34:07;;;;;;;5.78;3.65;;;;;;;15.89;41.13;100531.75;5134597;27;20039;-65
2023/10/18 09:36:39;;;;;;;6.30;3.78;;;;;;;15.95;41.03;100523.22;5135108;27;20047;-64
2023/10/18 09:39:10;;;;;;;5.40;3.67;;;;;;;16.01;41.02;100520.03;5135070;27;20074;-64
2023/10/18 09:41:39;;;;;;;5.78;3.85;;;;;;;16.09;41.11;100518.56;5134964;27;20043;-64
2023/10/18 09:44:08;;;;;;;5.85;3.60;;;;;;;16.19;40.85;100527.63;5134694;27;20043;-65
2023/10/18 09:46:36;;;;;;;5.45;3.58;;;;;;;16.26;40.83;100512.72;5134596;27;20103;-65
2023/10/18 09:49:09;;;;;;;5.00;3.45;;;;;;;16.37;40.84;100503.78;5134407;27;20498;-65
2023/10/18 09:51:43;;;;;;;;;;;;;;;16.46;40.64;100503.03;5134737;27;20480;-65
2023/10/18 09:54:14;;;;;;;4.97;3.03;;;;;;;16.51;40.53;100507.09;5134277;27;20393;-65
2023/10/18 09:56:45;;;;;;;6.15;3.38;;;;;;;16.59;40.50;100495.69;5134101;27;20140;-65
2023/10/18 09:59:16;;;;;;;6.18;3.78;;;;;;;16.68;40.31;100497.66;5134201;27;20043;-65
2023/10/18 10:02:07;;;;;;;5.10;3.35;;;;;;;16.78;40.26;100495.06;5134239;27;20043;-65
2023/10/18 10:04:36;;;;;;;5.63;3.55;;;;;;;16.87;40.19;100497.00;5133959;27;20043;-65
2023/10/18 10:09:59;;;;;;;5.50;3.20;;;;;;;17.04;40.10;100487.53;5134123;27;20077;-65
2023/10/18 10:12:29;;;;;;;5.38;3.33;;;;;;;17.10;39.82;100482.50;5133882;27;20047;-65
2023/10/18 10:14:58;;;;;;;5.50;3.47;;;;;;;17.17;39.64;100478.28;5133577;27;20054;-65
2023/10/18 10:17:29;;;;;;;5.30;3.20;;;;;;;17.25;39.75;100476.78;5134045;27;20100;-65
2023/10/18 10:20:10;;;;;;;5.95;3.50;;;;;;;17.34;39.79;100470.59;5133961;27;20055;-65
2023/10/18 10:22:41;;;;;;;5.68;3.38;;;;;;;17.41;39.55;100466.41;5133782;27;20108;-65
2023/10/18 10:25:19;;;;;;;5.55;3.28;;;;;;;17.47;39.74;100452.41;5133756;27;20057;-65
2023/10/18 10:28:14;;;;;;;5.07;3.40;;;;;;;17.60;39.29;100463.84;5133722;27;20122;-65
2023/10/18 10:30:43;;;;;;;4.85;3.22;;;;;;;17.68;39.48;100455.09;5133791;27;20047;-65
2023/10/18 10:33:13;;;;;;;6.13;3.40;;;;;;;17.76;39.17;100452.63;5133560;27;20051;-65
2023/10/18 10:35:46;;;;;;;6.07;3.35;;;;;;;17.87;39.14;100451.69;5134028;27;20526;-65
2023/10/18 10:38:18;;;;;;;6.35;3.10;;;;;;;17.99;38.92;100442.50;5133697;27;20049;-65
2023/10/18 10:40:49;;;;;;;5.25;3.33;;;;;;;18.09;39.06;100438.00;5133670;27;20138;-64
2023/10/18 10:43:22;;;;;;;5.38;3.10;;;;;;;18.16;38.97;100431.09;5133703;27;20411;-64
2023/10/18 10:45:57;;;;;;;4.40;3.10;;;;;;;18.26;38.78;100426.56;5133464;27;20533;-66
2023/10/18 10:48:32;;;;;;;5.80;3.08;;;;;;;18.35;38.69;100433.00;5133307;27;20134;-66
2023/10/18 10:51:11;;;;;;;4.82;3.00;;;;;;;18.38;38.45;100432.72;5133357;27;20086;-66
2023/10/18 10:53:44;;;;;;;5.00;2.90;;;;;;;18.42;38.81;100427.88;5133419;27;20185;-65
2023/10/18 10:56:19;;;;;;;4.57;2.90;;;;;;;18.47;38.40;100422.94;5133075;27;20506;-66
2023/10/18 10:59:03;;;;;;;4.97;3.35;;;;;;;18.58;38.60;100412.00;5132803;27;20054;-66
2023/10/18 11:02:05;;;;;;;4.60;3.10;;;;;;;18.67;38.29;100407.63;5133255;27;20050;-65
2023/10/18 11:04:49;;;;;;;4.93;3.00;;;;;;;18.74;38.10;100409.63;5133067;27;20502;-64
2023/10/18 11:07:22;;;;;;;;;;;;;;;18.80;38.55;100409.06;5133226;27;20050;-65
2023/10/18 11:09:59;;;;;;;4.43;2.83;;;;;;;18.87;38.27;100407.50;5132736;27;20372;-65
2023/10/18 11:12:33;;;;;;;4.30;2.70;;;;;;;18.96;38.06;100408.50;5132872;27;20051;-66
2023/10/18 11:15:02;;;;;;;;;;;;;;;19.06;38.15;100403.09;5133359;27;20092;-65
2023/10/18 11:17:34;;;;;;;5.00;2.63;;;;;;;19.13;38.03;100396.13;5132486;27;20516;-66
2023/10/18 11:20:17;;;;;;;5.03;3.00;;;;;;;19.20;37.81;100401.78;5132862;27;20043;-66
2023/10/18 11:22:47;;;;;;;4.27;2.70;;;;;;;19.26;37.76;100393.97;5132772;27;20058;-66
2023/10/18 11:25:19;;;;;;;5.07;2.72;;;;;;;19.29;37.74;100380.16;5132757;27;20078;-66
2023/10/18 11:27:49;;;;;;;4.60;2.93;;;;;;;19.30;38.21;100381.88;5131853;27;20039;-66
2023/10/18 11:30:22;;;;;;;5.07;2.70;;;;;;;19.29;37.90;100373.88;5132817;27;20043;-66
2023/10/18 11:32:53;;;;;;;;;;;;;;;19.33;38.04;100365.34;5133021;27;20083;-66
2023/10/18 11:35:42;;;;;;;4.55;2.60;;;;;;;19.36;37.76;100367.75;5132726;27;20345;-66
2023/10/18 11:38:10;;;;;;;5.10;2.78;;;;;;;19.37;37.96;100364.03;5132727;27;20205;-66
2023/10/18 11:40:50;;;;;;;3.97;2.55;;;;;;;19.42;38.10;100364.47;5132492;27;20047;-65
2023/10/18 11:43:26;;;;;;;4.70;3.10;;;;;;;19.45;38.28;100353.34;5132398;27;20081;-65
2023/10/18 11:46:06;;;;;;;4.88;2.50;;;;;;;19.49;38.08;100347.63;5132546;27;20086;-66
2023/10/18 11:48:36;;;;;;;5.57;2.83;;;;;;;19.54;37.98;100342.66;5132419;27;20051;-66
2023/10/18 11:51:06;;;;;;;5.25;2.88;;;;;;;19.60;38.00;100340.25;5132495;27;20047;-66
2023/10/18 11:53:36;;;;;;;4.47;2.70;;;;;;;19.70;37.99;100335.66;5132124;27;20051;-65
2023/10/18 11:56:08;;;;;;;5.47;2.80;;;;;;;19.77;37.92;100341.31;5132388;27;20043;-65
2023/10/18 11:58:41;;;;;;;4.40;2.88;;;;;;;19.81;38.10;100336.47;5132417;27;20047;-65
2023/10/18 12:01:19;;;;;;;5.23;2.73;;;;;;;19.89;37.88;100331.16;5132269;27;20055;-66
2023/10/18 12:03:49;;;;;;;3.90;2.60;;;;;;;19.99;37.87;100329.25;5132172;27;20507;-65